Time;durP1;ratioP1;P1;durP2;ratioP2;P2;SDS_P1;SDS_P2;PMS_P1;PMS_P2;Temp;Humidity;BMP_temperature;BMP_pressure;BME280_temperature;BME280_humidity;BME280_pressure;Samples;Min_cycle;Max_cycle;Signal;HPM_P1;HPM_P2
2023/04/10 00:01:37;;;;;;;9.67;8.60;;;7.00;99.50;;;;;;5024807;28;20210;-68
2023/04/10 00:04:04;;;;;;;13.07;9.85;;;7.50;99.90;;;;;;5029241;28;20664;-68
2023/04/10 00:06:31;;;;;;;12.35;9.45;;;7.30;99.90;;;;;;5024933;28;20655;-68
2023/04/10 00:08:57;;;;;;;9.85;8.40;;;7.30;99.90;;;;;;5027539;28;20194;-68
2023/04/10 00:11:24;;;;;;;11.20;9.00;;;7.30;99.90;;;;;;5027851;28;20186;-68
2023/04/10 00:13:50;;;;;;;10.50;9.00;;;7.20;99.90;;;;;;5028558;28;20411;-68
2023/04/10 00:16:16;;;;;;;10.70;9.57;;;7.20;99.90;;;;;;5028158;28;20419;-68
2023/04/10 00:18:41;;;;;;;12.27;9.80;;;7.10;99.90;;;;;;5026497;28;20221;-68
2023/04/10 00:21:07;;;;;;;11.93;9.20;;;6.40;99.90;;;;;;5028024;28;20193;-68
2023/04/10 00:23:33;;;;;;;11.40;9.53;;;6.90;99.90;;;;;;5027420;28;20735;-68
2023/04/10 00:26:00;;;;;;;12.00;10.40;;;7.10;99.90;;;;;;5025379;28;20225;-68
2023/04/10 00:28:25;;;;;;;11.32;9.27;;;6.90;99.90;;;;;;5023998;28;21355;-68
2023/04/10 00:30:51;;;;;;;10.30;8.50;;;6.70;99.90;;;;;;5028856;28;20182;-68
2023/04/10 00:33:17;;;;;;;13.57;10.05;;;7.00;99.90;;;;;;5027588;28;20733;-68
2023/04/10 00:35:43;;;;;;;12.23;10.30;;;7.00;99.90;;;;;;5027247;28;20560;-68
2023/04/10 00:38:08;;;;;;;12.70;9.20;;;6.60;99.90;;;;;;5027173;28;20682;-68
2023/04/10 00:40:34;;;;;;;13.50;9.73;;;6.80;99.90;;;;;;5027967;28;20190;-68
2023/04/10 00:43:00;;;;;;;13.88;10.77;;;6.70;99.90;;;;;;5026347;28;20289;-67
2023/04/10 00:45:26;;;;;;;12.60;10.10;;;5.90;99.90;;;;;;5025598;28;20720;-67
2023/04/10 00:47:52;;;;;;;11.73;9.07;;;6.80;99.90;;;;;;5026571;28;20272;-67
2023/04/10 00:50:19;;;;;;;9.60;8.60;;;6.00;99.90;;;;;;5026434;28;20453;-67
2023/04/10 00:52:45;;;;;;;11.38;10.15;;;6.70;99.90;;;;;;5024735;28;20465;-68
2023/04/10 00:55:11;;;;;;;11.10;9.60;;;6.60;99.90;;;;;;5028154;28;20216;-67
2023/04/10 00:57:37;;;;;;;11.40;9.83;;;6.60;99.90;;;;;;5024943;28;20464;-68
2023/04/10 01:00:03;;;;;;;12.48;9.55;;;6.50;99.90;;;;;;5025525;28;20655;-67
2023/04/10 01:02:30;;;;;;;11.50;9.68;;;6.70;99.90;;;;;;5027244;28;20825;-67
2023/04/10 01:04:57;;;;;;;11.88;9.95;;;6.40;99.90;;;;;;5026473;28;20209;-68
2023/04/10 01:07:46;;;;;;;11.13;9.65;;;6.30;99.90;;;;;;5026150;28;20602;-68
2023/04/10 01:10:36;;;;;;;12.25;9.73;;;6.40;99.90;;;;;;5025432;28;20187;-68
2023/04/10 01:13:15;;;;;;;14.27;9.63;;;6.40;99.90;;;;;;5025434;28;20221;-68
2023/04/10 01:16:07;;;;;;;11.73;9.23;;;6.30;99.90;;;;;;5026851;28;20194;-68
2023/04/10 01:18:45;;;;;;;12.07;10.65;;;6.20;99.90;;;;;;5023196;28;20213;-68
2023/04/10 01:21:14;;;;;;;13.60;10.65;;;6.40;99.90;;;;;;5025025;28;20312;-68
2023/04/10 01:23:52;;;;;;;14.15;10.40;;;6.00;99.90;;;;;;5027798;28;20182;-67
2023/04/10 01:26:35;;;;;;;12.88;10.10;;;6.30;99.90;;;;;;5025026;28;20269;-68
2023/04/10 01:29:08;;;;;;;11.93;9.48;;;5.90;99.90;;;;;;5025125;28;20243;-67
2023/04/10 01:31:46;;;;;;;12.43;9.93;;;5.90;99.90;;;;;;5028467;28;20198;-67
2023/04/10 01:34:19;;;;;;;15.43;10.57;;;5.90;99.90;;;;;;5026581;28;20297;-67
2023/04/10 01:37:03;;;;;;;12.75;10.45;;;5.90;99.90;;;;;;5025661;28;20182;-67
2023/04/10 01:39:30;;;;;;;12.30;10.02;;;6.00;99.90;;;;;;5024701;28;20296;-67
2023/04/10 01:41:57;;;;;;;12.10;10.68;;;6.10;99.90;;;;;;5023777;28;20821;-66
2023/04/10 01:44:26;;;;;;;11.52;9.23;;;5.60;99.90;;;;;;5026769;28;20190;-66
2023/04/10 01:46:54;;;;;;;13.23;10.60;;;6.10;99.90;;;;;;5024048;28;20186;-66
2023/04/10 01:49:22;;;;;;;14.45;10.73;;;6.10;99.90;;;;;;5028552;28;20194;-66
2023/04/10 01:51:50;;;;;;;13.13;10.43;;;6.00;99.90;;;;;;5024223;28;20229;-67
2023/04/10 01:54:16;;;;;;;14.05;10.98;;;6.00;99.90;;;;;;5025454;28;20185;-67
2023/04/10 01:56:42;;;;;;;12.20;10.07;;;5.30;99.90;;;;;;5025482;28;20289;-67
2023/04/10 01:59:08;;;;;;;14.07;10.93;;;5.90;99.90;;;;;;5024240;28;20469;-67
2023/04/10 02:01:33;;;;;;;13.10;9.80;;;5.80;99.90;;;;;;5026410;28;20213;-67
2023/04/10 02:04:00;;;;;;;12.30;10.00;;;6.20;99.90;;;;;;5026871;28;20186;-66
2023/04/10 02:06:36;;;;;;;12.57;10.30;;;5.70;99.90;;;;;;5023116;28;20876;-67
2023/04/10 02:09:15;;;;;;;14.05;10.95;;;5.70;99.90;;;;;;5026525;28;20243;-66
2023/04/10 02:12:12;;;;;;;14.98;11.18;;;5.60;99.90;;;;;;5019768;28;20214;-67
2023/04/10 02:14:42;;;;;;;11.38;9.88;;;5.50;99.90;;;;;;5021295;28;20201;-66
2023/04/10 02:17:13;;;;;;;12.18;10.65;;;5.50;99.90;;;;;;5025312;28;20567;-66
2023/04/10 02:19:40;;;;;;;13.07;10.25;;;5.80;99.90;;;;;;5024669;28;20310;-67
2023/04/10 02:22:05;;;;;;;12.25;9.98;;;5.70;99.90;;;;;;5020835;28;20267;-67
2023/04/10 02:24:32;;;;;;;13.23;10.10;;;5.40;99.90;;;;;;5023498;28;20656;-66
2023/04/10 02:26:58;;;;;;;13.00;10.20;;;5.60;99.90;;;;;;5030105;28;20935;-66
2023/04/10 02:29:23;;;;;;;14.00;10.40;;;5.30;99.90;;;;;;5030683;28;20197;-66
2023/04/10 02:31:49;;;;;;;12.73;10.63;;;5.30;99.90;;;;;;5029574;28;20977;-66
2023/04/10 02:34:15;;;;;;;14.73;11.63;;;5.30;99.90;;;;;;5030309;28;20197;-66
2023/04/10 02:36:40;;;;;;;12.47;10.17;;;5.30;99.90;;;;;;5029486;28;20532;-66
2023/04/10 02:39:09;;;;;;;12.37;10.13;;;5.50;99.90;;;;;;5029736;28;20259;-66
2023/04/10 02:41:35;;;;;;;13.38;10.27;;;5.30;99.90;;;;;;5025448;28;20224;-66
2023/04/10 02:44:01;;;;;;;13.60;10.93;;;5.30;99.90;;;;;;5029786;28;20834;-66
2023/04/10 02:46:26;;;;;;;13.17;10.20;;;5.50;99.90;;;;;;5028251;28;20193;-66
2023/04/10 02:48:52;;;;;;;12.23;10.07;;;5.40;99.90;;;;;;5030091;28;20200;-66
2023/04/10 02:51:18;;;;;;;11.97;9.97;;;5.10;99.90;;;;;;5030945;28;20220;-66
2023/04/10 02:53:44;;;;;;;13.73;10.07;;;4.80;99.90;;;;;;5031442;28;20510;-65
2023/04/10 02:56:10;;;;;;;15.40;11.37;;;5.40;99.90;;;;;;5028678;28;20201;-67
2023/04/10 02:58:37;;;;;;;11.80;9.90;;;5.20;99.90;;;;;;5027760;28;20217;-66
2023/04/10 03:01:05;;;;;;;13.48;10.30;;;5.40;99.90;;;;;;5029369;28;20567;-66
2023/04/10 03:03:31;;;;;;;13.43;10.95;;;5.30;99.90;;;;;;5029637;28;20228;-66
2023/04/10 03:05:57;;;;;;;11.50;9.63;;;5.10;99.90;;;;;;5028408;28;20672;-66
2023/04/10 03:08:22;;;;;;;13.73;10.33;;;5.10;99.90;;;;;;5028714;28;20447;-66
2023/04/10 03:10:48;;;;;;;13.50;10.87;;;4.90;99.90;;;;;;5028851;28;20236;-66
2023/04/10 03:13:14;;;;;;;12.00;10.30;;;4.90;99.90;;;;;;5028687;28;20275;-66
2023/04/10 03:15:40;;;;;;;12.73;10.88;;;4.90;99.90;;;;;;5028854;28;20182;-66
2023/04/10 03:18:06;;;;;;;12.87;10.37;;;5.00;99.90;;;;;;5027428;28;20212;-66
2023/04/10 03:20:32;;;;;;;12.53;10.27;;;4.90;99.90;;;;;;5026841;28;20654;-66
2023/04/10 03:22:58;;;;;;;13.63;10.63;;;5.20;99.90;;;;;;5027611;28;20925;-65
2023/04/10 03:25:24;;;;;;;12.35;10.32;;;5.00;99.90;;;;;;5028121;28;20249;-66
2023/04/10 03:27:50;;;;;;;14.27;11.05;;;5.10;99.90;;;;;;5026870;28;20221;-65
2023/04/10 03:30:16;;;;;;;14.13;10.87;;;5.10;99.90;;;;;;5026802;28;20232;-66
2023/04/10 03:32:42;;;;;;;13.07;10.90;;;5.20;99.90;;;;;;5027730;28;20213;-67
2023/04/10 03:35:09;;;;;;;14.20;10.43;;;5.00;99.90;;;;;;5026810;28;20445;-66
2023/04/10 03:37:34;;;;;;;12.80;10.60;;;5.10;99.90;;;;;;5025234;28;20475;-67
2023/04/10 03:40:00;;;;;;;11.70;9.67;;;4.60;99.90;;;;;;5028562;28;20182;-66
2023/04/10 03:42:26;;;;;;;11.97;10.00;;;5.30;99.90;;;;;;5028335;28;20484;-66
2023/04/10 03:44:51;;;;;;;13.83;10.40;;;5.30;99.90;;;;;;5027097;28;20182;-66
2023/04/10 03:47:17;;;;;;;12.27;10.57;;;5.20;99.90;;;;;;5027298;28;20533;-67
2023/04/10 03:49:43;;;;;;;14.67;10.83;;;5.10;99.90;;;;;;5026086;28;20271;-66
2023/04/10 03:52:08;;;;;;;12.43;10.10;;;4.90;99.90;;;;;;5028149;28;20217;-66
2023/04/10 03:54:34;;;;;;;13.53;10.80;;;4.90;99.90;;;;;;5029774;28;20189;-66
2023/04/10 03:57:00;;;;;;;13.33;10.77;;;5.00;99.90;;;;;;5025362;28;20185;-67
2023/04/10 03:59:26;;;;;;;12.85;9.98;;;4.90;99.90;;;;;;5028245;28;20292;-66
2023/04/10 04:01:52;;;;;;;13.53;10.80;;;4.30;99.90;;;;;;5026362;28;21254;-67
2023/04/10 04:04:17;;;;;;;13.38;10.85;;;4.90;99.90;;;;;;5027376;28;20277;-66
2023/04/10 04:06:43;;;;;;;14.23;11.30;;;4.30;99.90;;;;;;5023243;28;20320;-66
2023/04/10 04:09:09;;;;;;;12.43;10.33;;;4.90;99.90;;;;;;5025641;28;20660;-67
2023/04/10 04:11:34;;;;;;;14.33;11.53;;;5.20;99.90;;;;;;5022873;28;20221;-66
2023/04/10 04:14:00;;;;;;;11.97;10.47;;;4.80;99.90;;;;;;5024371;28;20241;-66
2023/04/10 04:16:26;;;;;;;12.90;9.60;;;4.60;99.90;;;;;;5027239;28;20569;-67
2023/04/10 04:18:51;;;;;;;13.53;10.83;;;4.90;99.90;;;;;;5024723;28;20211;-67
2023/04/10 04:21:17;;;;;;;13.37;10.50;;;5.30;99.90;;;;;;5024884;28;20233;-66
2023/04/10 04:23:43;;;;;;;13.13;10.63;;;4.80;99.90;;;;;;5026822;28;20292;-66
2023/04/10 04:26:09;;;;;;;12.70;10.40;;;4.30;99.90;;;;;;5027640;28;20191;-67
2023/04/10 04:28:34;;;;;;;14.50;10.97;;;4.80;99.90;;;;;;5022734;28;20561;-67
2023/04/10 04:31:01;;;;;;;14.03;11.20;;;4.80;99.90;;;;;;5028396;28;20454;-66
2023/04/10 04:33:27;;;;;;;11.85;9.68;;;5.00;99.90;;;;;;5027364;28;20464;-66
2023/04/10 04:35:52;;;;;;;12.03;10.40;;;4.70;99.90;;;;;;5026426;28;20208;-67
2023/04/10 04:38:19;;;;;;;11.67;9.27;;;4.80;99.90;;;;;;5027912;28;20214;-66
2023/04/10 04:40:44;;;;;;;12.65;10.40;;;4.70;99.90;;;;;;5026122;28;20256;-66
2023/04/10 04:43:10;;;;;;;12.43;9.10;;;4.70;99.90;;;;;;5023121;28;20201;-66
2023/04/10 04:45:36;;;;;;;13.77;9.60;;;4.90;99.90;;;;;;5022067;28;20495;-66
2023/04/10 04:48:02;;;;;;;14.07;10.97;;;4.50;99.90;;;;;;5023934;28;20605;-66
2023/04/10 04:50:27;;;;;;;12.40;10.20;;;4.90;99.90;;;;;;5016150;28;20269;-66
2023/04/10 04:52:53;;;;;;;14.00;10.77;;;5.30;99.90;;;;;;5026391;28;20472;-66
2023/04/10 04:55:19;;;;;;;12.40;9.80;;;4.30;99.90;;;;;;5027997;28;20198;-66
2023/04/10 04:57:44;;;;;;;12.20;9.53;;;4.80;99.90;;;;;;5022959;28;20258;-66
2023/04/10 05:00:10;;;;;;;13.00;10.10;;;4.90;99.90;;;;;;5025414;28;20468;-66
2023/04/10 05:02:36;;;;;;;14.80;10.90;;;4.80;99.90;;;;;;5024461;28;20202;-67
2023/04/10 05:05:02;;;;;;;12.83;9.70;;;5.10;99.90;;;;;;5024836;28;20189;-66
2023/04/10 05:07:28;;;;;;;12.37;10.07;;;5.00;99.90;;;;;;5024895;28;20277;-66
2023/04/10 05:09:53;;;;;;;12.80;9.52;;;4.90;99.90;;;;;;5025421;28;20538;-67
2023/04/10 05:12:19;;;;;;;13.70;11.17;;;5.60;99.90;;;;;;5019745;28;20303;-66
2023/04/10 05:14:45;;;;;;;13.70;10.20;;;5.20;99.90;;;;;;5027352;28;20196;-67
2023/04/10 05:17:11;;;;;;;11.50;9.53;;;5.20;99.90;;;;;;5025983;28;20454;-67
2023/04/10 05:19:36;;;;;;;12.90;9.43;;;5.20;99.90;;;;;;5025231;28;20472;-66
2023/04/10 05:22:02;;;;;;;12.53;9.10;;;5.10;99.90;;;;;;5021801;28;20218;-67
2023/04/10 05:24:27;;;;;;;11.30;9.37;;;5.10;99.90;;;;;;5022694;28;20551;-67
2023/04/10 05:26:53;;;;;;;12.87;10.57;;;5.40;99.90;;;;;;5025467;28;20181;-67
2023/04/10 05:29:19;;;;;;;14.03;10.07;;;5.10;99.90;;;;;;5025012;28;20261;-67
2023/04/10 05:31:45;;;;;;;13.30;10.73;;;5.50;99.90;;;;;;5025148;28;20556;-66
2023/04/10 05:34:11;;;;;;;10.48;9.07;;;5.40;99.90;;;;;;5026365;28;20217;-67
2023/04/10 05:36:37;;;;;;;12.27;9.77;;;5.40;99.90;;;;;;5024130;28;20723;-66
2023/04/10 05:39:02;;;;;;;13.63;9.63;;;5.10;99.90;;;;;;5025896;28;20313;-67
2023/04/10 05:41:28;;;;;;;13.70;10.77;;;6.10;99.90;;;;;;5022270;28;20186;-67
2023/04/10 05:43:54;;;;;;;11.83;8.83;;;5.80;99.90;;;;;;5023523;28;20178;-66
2023/04/10 05:46:19;;;;;;;14.07;10.20;;;5.80;99.90;;;;;;5022467;28;20222;-67
2023/04/10 05:48:45;;;;;;;12.00;9.13;;;5.90;99.90;;;;;;5021006;28;20208;-66
2023/04/10 05:51:11;;;;;;;11.77;9.73;;;6.10;99.90;;;;;;5023618;28;20256;-67
2023/04/10 05:53:36;;;;;;;12.53;9.63;;;6.20;99.90;;;;;;5025698;28;20194;-67
2023/04/10 05:56:02;;;;;;;10.70;9.60;;;6.30;99.90;;;;;;5028421;28;20198;-67
2023/04/10 05:58:28;;;;;;;12.43;9.83;;;6.50;99.90;;;;;;5028229;28;20217;-68
2023/04/10 06:00:55;;;;;;;10.67;8.97;;;6.80;99.90;;;;;;5028229;28;20182;-68
2023/04/10 06:03:20;;;;;;;10.48;9.05;;;6.40;99.90;;;;;;5029888;28;20680;-67
2023/04/10 06:05:46;;;;;;;11.00;8.93;;;6.90;99.90;;;;;;5031550;28;20240;-68
2023/04/10 06:08:12;;;;;;;15.03;9.43;;;7.00;99.90;;;;;;5027129;28;20487;-67
2023/04/10 06:10:37;;;;;;;12.20;9.80;;;7.20;99.90;;;;;;5030409;28;20659;-71
2023/04/10 06:13:03;;;;;;;10.70;9.10;;;7.30;99.90;;;;;;5030025;28;20221;-71
2023/04/10 06:15:29;;;;;;;10.23;8.60;;;7.40;99.90;;;;;;5028799;28;20194;-73
2023/04/10 06:17:55;;;;;;;10.47;8.37;;;7.60;99.90;;;;;;5028471;28;20207;-72
2023/04/10 06:20:21;;;;;;;11.00;9.43;;;8.10;99.90;;;;;;5028689;28;20258;-72
2023/04/10 06:22:46;;;;;;;10.60;8.75;;;8.20;99.90;;;;;;5029192;28;20290;-67
2023/04/10 06:25:12;;;;;;;11.07;8.87;;;8.30;99.90;;;;;;5031017;28;20261;-70
2023/04/10 06:27:38;;;;;;;9.47;8.50;;;8.30;99.70;;;;;;5029592;28;20184;-70
2023/04/10 06:30:04;;;;;;;12.03;9.13;;;8.30;99.20;;;;;;5027125;28;20493;-69
2023/04/10 06:32:30;;;;;;;9.65;8.32;;;8.40;99.00;;;;;;5028318;28;20238;-69
2023/04/10 06:34:56;;;;;;;10.77;7.90;;;8.80;98.80;;;;;;5030777;28;20228;-69
2023/04/10 06:37:32;;;;;;;8.50;7.60;;;8.60;98.20;;;;;;5023927;28;20198;-68
2023/04/10 06:40:09;;;;;;;9.30;8.25;;;8.70;98.10;;;;;;5022038;28;20193;-69
2023/04/10 06:42:35;;;;;;;9.68;8.38;;;9.40;97.40;;;;;;5031241;28;20242;-68
2023/04/10 06:45:02;;;;;;;12.18;10.23;;;9.20;96.80;;;;;;5028404;28;20187;-68
2023/04/10 06:47:27;;;;;;;10.23;8.10;;;9.30;96.50;;;;;;5028850;28;20232;-68
2023/04/10 06:49:53;;;;;;;9.47;8.17;;;9.90;95.60;;;;;;5031405;28;20203;-68
2023/04/10 06:52:19;;;;;;;9.90;8.80;;;10.40;94.40;;;;;;5029810;28;20278;-68
2023/04/10 06:54:45;;;;;;;9.73;8.73;;;10.90;93.50;;;;;;5024875;28;20186;-69
2023/04/10 06:57:11;;;;;;;9.13;8.20;;;11.40;92.10;;;;;;5027299;28;20505;-67
2023/04/10 06:59:36;;;;;;;7.40;6.70;;;12.20;91.00;;;;;;5029871;28;20202;-68
2023/04/10 07:02:02;;;;;;;8.50;7.47;;;13.10;88.90;;;;;;5029494;28;20250;-72
2023/04/10 07:04:28;;;;;;;7.97;7.17;;;14.40;85.10;;;;;;5029896;28;20182;-71
2023/04/10 07:06:54;;;;;;;8.10;7.30;;;16.00;78.30;;;;;;5029767;28;20934;-73
2023/04/10 07:09:19;;;;;;;8.70;7.80;;;17.20;73.10;;;;;;5026220;28;20539;-72
2023/04/10 07:11:45;;;;;;;8.47;7.67;;;17.90;66.80;;;;;;5026375;28;20630;-69
2023/04/10 07:14:11;;;;;;;8.63;7.73;;;19.30;65.30;;;;;;5027202;28;20190;-70
2023/04/10 07:16:36;;;;;;;8.07;7.27;;;21.50;58.70;;;;;;5026966;28;20225;-70
2023/04/10 07:19:02;;;;;;;7.57;6.87;;;23.40;53.00;;;;;;5029614;28;20218;-69
2023/04/10 07:21:28;;;;;;;7.60;6.90;;;24.10;50.10;;;;;;5023348;28;20180;-68
2023/04/10 07:23:54;;;;;;;7.40;6.70;;;25.30;47.00;;;;;;5022825;28;20198;-66
2023/04/10 07:26:20;;;;;;;7.93;7.20;;;25.30;42.40;;;;;;5026234;28;20193;-67
2023/04/10 07:28:45;;;;;;;8.20;7.40;;;25.40;43.00;;;;;;5026756;28;21088;-70
2023/04/10 07:31:12;;;;;;;6.80;6.20;;;26.30;41.50;;;;;;5022563;28;20670;-70
2023/04/10 07:33:38;;;;;;;5.93;5.43;;;26.20;40.50;;;;;;5023350;28;20280;-70
2023/04/10 07:36:04;;;;;;;6.80;6.30;;;25.50;37.90;;;;;;5024150;28;21025;-70
2023/04/10 07:38:31;;;;;;;8.33;7.53;;;24.80;40.80;;;;;;5024623;28;20580;-71
2023/04/10 07:40:57;;;;;;;8.00;7.30;;;25.90;39.60;;;;;;5026757;28;20533;-70
2023/04/10 07:43:23;;;;;;;6.73;6.13;;;26.50;39.10;;;;;;5026404;28;20520;-69
2023/04/10 07:45:49;;;;;;;5.87;5.37;;;27.40;37.20;;;;;;5027583;28;20980;-69
2023/04/10 07:48:15;;;;;;;5.77;5.27;;;26.40;35.80;;;;;;5024645;28;20989;-69
2023/04/10 07:50:41;;;;;;;5.67;5.27;;;26.40;36.10;;;;;;5023836;28;20211;-69
2023/04/10 07:53:07;;;;;;;5.90;5.40;;;26.30;35.40;;;;;;5022187;28;20848;-72
2023/04/10 07:55:41;;;;;;;5.50;5.10;;;25.50;36.10;;;;;;5026536;28;20183;-70
2023/04/10 07:58:06;;;;;;;5.50;5.10;;;24.60;37.70;;;;;;5023401;28;20466;-69
2023/04/10 08:00:32;;;;;;;5.30;4.90;;;25.50;37.10;;;;;;5028243;28;20504;-69
2023/04/10 08:02:58;;;;;;;6.17;5.60;;;25.40;36.50;;;;;;5028899;28;20195;-69
2023/04/10 08:05:24;;;;;;;5.47;4.97;;;25.40;37.00;;;;;;5028491;28;20440;-67
2023/04/10 08:07:50;;;;;;;5.97;5.47;;;25.60;36.80;;;;;;5025314;28;20730;-67
2023/04/10 08:10:15;;;;;;;6.00;5.50;;;25.20;36.40;;;;;;5027500;28;20190;-67
2023/04/10 08:12:41;;;;;;;5.27;4.87;;;25.50;35.90;;;;;;5026195;28;21650;-67
2023/04/10 08:15:07;;;;;;;5.60;5.20;;;24.70;37.10;;;;;;5025913;28;20245;-66
2023/04/10 08:17:32;;;;;;;5.20;4.80;;;25.50;36.70;;;;;;5027769;28;20186;-66
2023/04/10 08:19:59;;;;;;;4.93;4.53;;;25.70;36.40;;;;;;5022979;28;21003;-67
2023/04/10 08:22:24;;;;;;;6.37;5.87;;;25.40;35.60;;;;;;5026566;28;20210;-66
2023/04/10 08:24:50;;;;;;;5.63;5.20;;;24.30;36.40;;;;;;5027564;28;20813;-66
2023/04/10 08:27:16;;;;;;;4.90;4.40;;;23.90;37.20;;;;;;5027562;28;20205;-66
2023/04/10 08:29:42;;;;;;;5.27;4.87;;;23.70;37.80;;;;;;5027249;28;20654;-67
2023/04/10 08:32:08;;;;;;;5.67;5.17;;;23.70;37.30;;;;;;5024358;28;20227;-68
2023/04/10 08:34:34;;;;;;;5.50;5.10;;;23.50;37.20;;;;;;5024158;28;20443;-67
2023/04/10 08:36:59;;;;;;;5.60;5.10;;;23.20;37.10;;;;;;5026541;28;20186;-67
2023/04/10 08:39:25;;;;;;;4.70;4.30;;;23.10;37.90;;;;;;5028045;28;20221;-67
2023/04/10 08:41:50;;;;;;;4.67;4.27;;;23.20;37.50;;;;;;5028050;28;20294;-68
2023/04/10 08:44:16;;;;;;;4.70;4.30;;;23.20;38.00;;;;;;5026028;28;20188;-67
2023/04/10 08:46:44;;;;;;;4.80;4.40;;;23.60;37.60;;;;;;5023950;28;20188;-67
2023/04/10 08:49:17;;;;;;;5.50;5.00;;;23.80;37.50;;;;;;5025888;28;20477;-67
2023/04/10 08:51:57;;;;;;;4.60;4.30;;;23.40;37.60;;;;;;5027066;28;20511;-68
2023/04/10 08:54:28;;;;;;;5.10;4.70;;;23.50;37.90;;;;;;5025124;28;20458;-68
2023/04/10 08:56:55;;;;;;;5.43;5.03;;;23.90;37.80;;;;;;5022693;28;20480;-68
2023/04/10 08:59:21;;;;;;;4.83;4.43;;;24.20;37.80;;;;;;5024584;28;21018;-68
2023/04/10 09:01:47;;;;;;;4.77;4.37;;;24.00;37.50;;;;;;5022969;28;20468;-67
2023/04/10 09:04:13;;;;;;;5.30;4.90;;;24.80;37.50;;;;;;5025935;28;20449;-68
2023/04/10 09:06:39;;;;;;;4.50;4.10;;;25.10;37.00;;;;;;5022641;28;20480;-67
2023/04/10 09:09:05;;;;;;;4.53;4.20;;;24.30;36.90;;;;;;5027462;28;20448;-67
2023/04/10 09:12:03;;;;;;;4.50;4.17;;;24.40;36.70;;;;;;5021447;28;20472;-67
2023/04/10 09:14:35;;;;;;;4.47;4.17;;;23.60;36.80;;;;;;5024659;28;20451;-67
2023/04/10 09:17:15;;;;;;;4.53;4.13;;;23.50;37.70;;;;;;5026436;28;20445;-67
2023/04/10 09:19:41;;;;;;;4.00;3.70;;;23.80;37.10;;;;;;5023586;28;21285;-67
2023/04/10 09:22:07;;;;;;;4.10;3.80;;;24.00;36.40;;;;;;5023611;28;20471;-67
2023/04/10 09:24:37;;;;;;;6.13;4.60;;;24.20;37.00;;;;;;5027504;28;20447;-67
2023/04/10 09:27:04;;;;;;;4.60;4.30;;;24.60;36.70;;;;;;5025240;28;20869;-67
2023/04/10 09:29:44;;;;;;;3.83;3.53;;;24.40;36.40;;;;;;5022756;28;20452;-67
2023/04/10 09:32:11;;;;;;;4.63;4.23;;;24.00;36.60;;;;;;5020305;28;20468;-68
2023/04/10 09:34:52;;;;;;;3.80;3.50;;;23.70;37.00;;;;;;5030999;28;20522;-67
2023/04/10 09:37:21;;;;;;;3.43;3.23;;;23.30;37.00;;;;;;5027611;28;20441;-68
2023/04/10 09:39:47;;;;;;;3.70;3.40;;;23.40;35.80;;;;;;5031175;28;20472;-67
2023/04/10 09:42:13;;;;;;;3.87;3.57;;;23.20;36.00;;;;;;5028588;28;20859;-67
2023/04/10 09:44:40;;;;;;;3.80;3.50;;;23.70;36.70;;;;;;5026903;28;20495;-68
2023/04/10 09:47:17;;;;;;;3.10;2.90;;;24.50;35.50;;;;;;5027400;28;20806;-68
2023/04/10 09:49:51;;;;;;;3.70;3.40;;;25.10;34.30;;;;;;5027690;28;20447;-68
2023/04/10 09:52:37;;;;;;;3.40;3.20;;;25.10;34.40;;;;;;5028735;28;20476;-68
2023/04/10 09:55:09;;;;;;;3.70;3.40;;;24.90;33.90;;;;;;5030354;28;20459;-68
2023/04/10 09:57:35;;;;;;;3.77;3.47;;;24.60;34.20;;;;;;5027545;28;20451;-67
2023/04/10 10:00:04;;;;;;;5.40;3.37;;;23.40;35.20;;;;;;5028157;28;20768;-68
2023/04/10 10:02:30;;;;;;;3.60;3.30;;;22.90;36.20;;;;;;5027692;28;20813;-67
2023/04/10 10:04:59;;;;;;;3.50;3.30;;;22.30;36.80;;;;;;5028986;28;20457;-67
2023/04/10 10:07:26;;;;;;;3.63;3.33;;;22.10;38.00;;;;;;5027713;28;20551;-68
2023/04/10 10:09:52;;;;;;;4.50;4.10;;;22.20;38.00;;;;;;5031762;28;20573;-68
2023/04/10 10:12:28;;;;;;;4.03;3.73;;;21.80;37.70;;;;;;5026611;28;20553;-68
2023/04/10 10:15:13;;;;;;;3.30;3.10;;;22.10;37.80;;;;;;5029683;28;20182;-68
2023/04/10 10:17:50;;;;;;;3.50;3.30;;;22.20;36.90;;;;;;5028842;28;20452;-68
2023/04/10 10:20:19;;;;;;;3.00;2.70;;;22.20;37.00;;;;;;5022190;28;20490;-68
2023/04/10 10:22:45;;;;;;;2.60;2.40;;;22.80;37.00;;;;;;5025621;28;20472;-68
2023/04/10 10:25:12;;;;;;;2.60;2.40;;;23.10;35.70;;;;;;5029403;28;20445;-68
2023/04/10 10:27:40;;;;;;;2.63;2.43;;;23.00;35.70;;;;;;5028690;28;20451;-68
2023/04/10 10:30:08;;;;;;;2.90;2.70;;;23.40;35.30;;;;;;5028852;28;20449;-68
2023/04/10 10:32:34;;;;;;;2.27;2.07;;;23.40;35.10;;;;;;5025178;28;20519;-68
2023/04/10 10:35:02;;;;;;;2.50;2.30;;;23.80;33.80;;;;;;5028170;28;20466;-69
2023/04/10 10:37:29;;;;;;;2.40;2.20;;;23.50;32.20;;;;;;5028019;28;20453;-68
2023/04/10 10:40:18;;;;;;;2.67;2.47;;;23.30;33.30;;;;;;5028392;28;20481;-67
2023/04/10 10:42:59;;;;;;;2.23;2.13;;;23.30;32.60;;;;;;5026208;28;20514;-67
2023/04/10 10:45:33;;;;;;;2.10;2.00;;;22.90;32.40;;;;;;5024242;28;20446;-67
2023/04/10 10:47:59;;;;;;;2.47;2.27;;;22.60;31.80;;;;;;5024991;28;20509;-68
2023/04/10 10:50:45;;;;;;;2.43;2.23;;;22.20;32.20;;;;;;5028556;28;20483;-68
2023/04/10 10:53:39;;;;;;;2.43;2.23;;;22.10;32.80;;;;;;5029291;28;20480;-68
2023/04/10 10:56:17;;;;;;;2.53;2.33;;;22.10;33.40;;;;;;5025591;28;20445;-68
2023/04/10 10:58:46;;;;;;;1.73;1.63;;;22.50;33.70;;;;;;5028735;28;20540;-68
2023/04/10 11:01:13;;;;;;;1.60;1.50;;;22.40;32.10;;;;;;5026825;28;20930;-67
2023/04/10 11:03:38;;;;;;;2.03;1.93;;;22.60;31.90;;;;;;5028617;28;20898;-68
2023/04/10 11:06:07;;;;;;;1.80;1.70;;;22.60;31.40;;;;;;5028611;28;20540;-68
2023/04/10 11:08:42;;;;;;;2.40;2.20;;;22.10;32.20;;;;;;5027693;28;20190;-68
2023/04/10 11:11:22;;;;;;;1.93;1.83;;;21.90;32.00;;;;;;5023573;28;20491;-68
2023/04/10 11:13:56;;;;;;;1.70;1.60;;;21.90;31.80;;;;;;5028651;28;20479;-68
2023/04/10 11:16:22;;;;;;;1.67;1.57;;;22.20;31.40;;;;;;5028336;28;20495;-68
2023/04/10 11:18:48;;;;;;;2.17;1.80;;;22.50;31.20;;;;;;5027481;28;20492;-68
2023/04/10 11:21:20;;;;;;;1.73;1.63;;;23.00;30.70;;;;;;5027652;28;20457;-68
2023/04/10 11:23:49;;;;;;;1.50;1.40;;;23.30;30.30;;;;;;5029817;28;20182;-68
2023/04/10 11:26:41;;;;;;;1.80;1.70;;;23.60;30.00;;;;;;5028839;28;20533;-68
2023/04/10 11:29:16;;;;;;;2.70;2.50;;;24.10;30.30;;;;;;5022410;28;20447;-68
2023/04/10 11:31:47;;;;;;;1.97;1.73;;;24.20;30.00;;;;;;5028847;28;20471;-69
2023/04/10 11:34:14;;;;;;;1.97;1.67;;;23.80;29.50;;;;;;5026998;28;20451;-69
2023/04/10 11:36:49;;;;;;;1.80;1.70;;;23.90;30.00;;;;;;5024762;28;20451;-68
2023/04/10 11:39:19;;;;;;;1.47;1.37;;;24.10;29.70;;;;;;5026473;28;20477;-69
2023/04/10 11:41:49;;;;;;;1.80;1.70;;;23.50;29.80;;;;;;5027287;28;20569;-69
2023/04/10 11:44:37;;;;;;;1.93;1.83;;;23.40;30.30;;;;;;5026427;28;20441;-68
2023/04/10 11:47:03;;;;;;;2.13;1.93;;;23.70;31.50;;;;;;5025320;28;20442;-69
2023/04/10 11:49:31;;;;;;;1.47;1.37;;;23.30;30.10;;;;;;5026086;28;20563;-68
2023/04/10 11:51:57;;;;;;;1.70;1.60;;;23.30;29.40;;;;;;5027709;28;20563;-68
2023/04/10 11:54:28;;;;;;;1.23;1.13;;;23.60;29.70;;;;;;5027159;28;20488;-68
2023/04/10 11:57:11;;;;;;;1.50;1.40;;;23.50;29.20;;;;;;5025348;28;20449;-67
2023/04/10 11:59:37;;;;;;;1.60;1.50;;;23.40;29.60;;;;;;5025050;28;20480;-67
2023/04/10 12:02:07;;;;;;;1.50;1.40;;;23.30;29.40;;;;;;5026279;28;20477;-68
2023/04/10 12:04:34;;;;;;;2.80;1.30;;;23.20;29.40;;;;;;5025171;28;20451;-68
2023/04/10 12:07:00;;;;;;;1.60;1.50;;;23.10;29.10;;;;;;5022999;28;20523;-68
2023/04/10 12:09:26;;;;;;;1.40;1.27;;;22.80;28.80;;;;;;5026101;28;21175;-68
2023/04/10 12:12:03;;;;;;;1.10;1.00;;;22.40;28.20;;;;;;5027644;28;20835;-68
2023/04/10 12:14:39;;;;;;;1.10;0.90;;;22.20;28.00;;;;;;5025929;28;20549;-68
2023/04/10 12:17:08;;;;;;;1.33;1.23;;;22.10;28.40;;;;;;5026634;28;20444;-68
2023/04/10 12:19:34;;;;;;;1.13;1.03;;;22.00;28.90;;;;;;5023088;28;20472;-68
2023/04/10 12:22:01;;;;;;;1.33;1.00;;;21.70;28.60;;;;;;5023214;28;20461;-67
2023/04/10 12:24:44;;;;;;;0.70;0.70;;;21.60;27.50;;;;;;5026785;28;21024;-68
2023/04/10 12:27:24;;;;;;;0.90;0.80;;;21.40;27.50;;;;;;5024493;28;20982;-68
2023/04/10 12:29:52;;;;;;;0.80;0.80;;;21.10;27.50;;;;;;5029945;28;20606;-69
2023/04/10 12:32:18;;;;;;;1.20;1.00;;;20.80;28.00;;;;;;5030227;28;20210;-70
2023/04/10 12:34:57;;;;;;;1.47;1.30;;;20.90;28.20;;;;;;5026640;28;20197;-70
2023/04/10 12:37:23;;;;;;;0.98;0.90;;;20.90;28.40;;;;;;5026723;28;20459;-70
2023/04/10 12:39:49;;;;;;;1.40;1.30;;;20.80;28.40;;;;;;5025945;28;20229;-70
2023/04/10 12:42:20;;;;;;;1.77;1.03;;;20.90;28.80;;;;;;5025139;28;20201;-70
2023/04/10 12:45:00;;;;;;;1.17;1.00;;;21.00;28.90;;;;;;5029308;28;20565;-69
2023/04/10 12:47:28;;;;;;;1.02;0.95;;;21.10;28.30;;;;;;5023716;28;20186;-68
2023/04/10 12:50:06;;;;;;;1.30;1.20;;;21.10;28.80;;;;;;5022377;28;20198;-68